createdAt,value
2023-08-19T00:00:04.901Z,95025.00
2023-08-19T00:01:04.960Z,95023.00
2023-08-19T00:02:04.992Z,95023.00
2023-08-19T00:03:05.053Z,95023.00
2023-08-19T00:04:05.007Z,95023.00
2023-08-19T00:05:05.042Z,95021.00
2023-08-19T00:06:05.085Z,95021.00
2023-08-19T00:07:05.092Z,95023.00
2023-08-19T00:08:05.120Z,95025.00
2023-08-19T00:09:05.151Z,95027.00
2023-08-19T00:10:05.170Z,95025.00
2023-08-19T00:11:05.199Z,95031.00
2023-08-19T00:12:05.204Z,95033.00
2023-08-19T00:13:05.262Z,95034.00
2023-08-19T00:14:05.299Z,95036.00
2023-08-19T00:15:05.339Z,95034.00
2023-08-19T00:16:05.559Z,95038.00
2023-08-19T00:17:05.444Z,95038.00
2023-08-19T00:18:05.499Z,95040.00
2023-08-19T00:19:05.529Z,95040.00
2023-08-19T00:20:05.545Z,95040.00
2023-08-19T00:21:05.584Z,95040.00
2023-08-19T00:22:05.612Z,95038.00
2023-08-19T00:23:05.620Z,95036.00
2023-08-19T00:24:05.657Z,95034.00
2023-08-19T00:25:05.702Z,95033.00
2023-08-19T00:26:05.766Z,95029.00
2023-08-19T00:27:05.792Z,95031.00
2023-08-19T00:28:05.831Z,95027.00
2023-08-19T00:29:05.872Z,95027.00
2023-08-19T00:30:05.912Z,95029.00
2023-08-19T00:31:06.045Z,95027.00
2023-08-19T00:32:06.021Z,95027.00
2023-08-19T00:33:06.088Z,95029.00
2023-08-19T00:34:06.144Z,95027.00
2023-08-19T00:35:06.167Z,95029.00
2023-08-19T00:36:06.205Z,95027.00
2023-08-19T00:37:06.235Z,95031.00
2023-08-19T00:38:06.290Z,95029.00
2023-08-19T00:39:06.360Z,95027.00
2023-08-19T00:40:06.424Z,95029.00
2023-08-19T00:41:06.417Z,95029.00
2023-08-19T00:42:06.470Z,95031.00
2023-08-19T00:43:06.515Z,95031.00
2023-08-19T00:44:06.577Z,95033.00
2023-08-19T00:45:06.605Z,95031.00
2023-08-19T00:46:06.688Z,95034.00
2023-08-19T00:47:06.718Z,95033.00
2023-08-19T00:48:06.804Z,95038.00
2023-08-19T00:49:06.796Z,95034.00
2023-08-19T00:50:06.830Z,95036.00
2023-08-19T00:51:06.978Z,95033.00
2023-08-19T00:52:06.931Z,95033.00
2023-08-19T00:53:06.972Z,95036.00
2023-08-19T00:54:07.012Z,95033.00
2023-08-19T00:55:07.080Z,95033.00
2023-08-19T00:56:07.117Z,95034.00
2023-08-19T00:57:07.189Z,95036.00
2023-08-19T00:58:07.245Z,95034.00
2023-08-19T00:59:07.262Z,95036.00
2023-08-19T01:00:07.345Z,95036.00
2023-08-19T01:01:07.366Z,95040.00
2023-08-19T01:02:07.418Z,95038.00
2023-08-19T01:03:07.585Z,95036.00
2023-08-19T01:04:07.618Z,95038.00
2023-08-19T01:05:07.537Z,95034.00
2023-08-19T01:06:07.607Z,95034.00
2023-08-19T01:07:07.603Z,95031.00
2023-08-19T01:08:07.667Z,95033.00
2023-08-19T01:09:07.697Z,95031.00
2023-08-19T01:10:07.748Z,95031.00
2023-08-19T01:11:07.817Z,95029.00
2023-08-19T01:12:07.857Z,95027.00
2023-08-19T01:13:07.916Z,95025.00
2023-08-19T01:14:07.985Z,95023.00
2023-08-19T01:15:08.025Z,95025.00
2023-08-19T01:16:08.130Z,95023.00
2023-08-19T01:17:08.102Z,95023.00
2023-08-19T01:18:08.236Z,95025.00
2023-08-19T01:19:08.207Z,95027.00
2023-08-19T01:20:08.270Z,95027.00
2023-08-19T01:21:08.337Z,95027.00
2023-08-19T01:22:08.369Z,95029.00
2023-08-19T01:23:08.399Z,95034.00
2023-08-19T01:24:08.457Z,95027.00
2023-08-19T01:25:08.413Z,95029.00
2023-08-19T01:26:08.453Z,95031.00
2023-08-19T01:27:08.519Z,95031.00
2023-08-19T01:28:08.561Z,95031.00
2023-08-19T01:29:08.627Z,95027.00
2023-08-19T01:30:08.653Z,95027.00
2023-08-19T01:31:08.666Z,95029.00
2023-08-19T01:32:08.717Z,95027.00
2023-08-19T01:33:08.796Z,95031.00
2023-08-19T01:34:08.774Z,95029.00
2023-08-19T01:35:08.818Z,95027.00
2023-08-19T01:36:08.837Z,95027.00
2023-08-19T01:37:08.848Z,95025.00
2023-08-19T01:38:08.906Z,95029.00
2023-08-19T01:39:08.954Z,95027.00
2023-08-19T01:40:08.953Z,95027.00
2023-08-19T01:41:08.979Z,95027.00
2023-08-19T01:42:08.982Z,95029.00
2023-08-19T01:43:08.990Z,95031.00
2023-08-19T01:44:09.053Z,95029.00
2023-08-19T01:45:09.094Z,95029.00
2023-08-19T01:46:09.212Z,95029.00
2023-08-19T01:47:09.217Z,95034.00
2023-08-19T01:48:09.259Z,95034.00
2023-08-19T01:49:09.220Z,95036.00
2023-08-19T01:50:09.256Z,95034.00
2023-08-19T01:51:09.238Z,95034.00
2023-08-19T01:52:09.297Z,95036.00
2023-08-19T01:53:09.287Z,95036.00
2023-08-19T01:54:09.340Z,95036.00
2023-08-19T01:55:09.354Z,95033.00
2023-08-19T01:56:09.356Z,95036.00
2023-08-19T01:57:09.408Z,95034.00
2023-08-19T01:58:09.412Z,95033.00
2023-08-19T01:59:09.433Z,95033.00
2023-08-19T02:00:09.454Z,95034.00
2023-08-19T02:01:09.505Z,95034.00
2023-08-19T02:02:09.511Z,95034.00
2023-08-19T02:03:09.561Z,95034.00
2023-08-19T02:04:09.530Z,95033.00
2023-08-19T02:05:09.599Z,95034.00
2023-08-19T02:06:09.561Z,95033.00
2023-08-19T02:07:09.559Z,95036.00
2023-08-19T02:08:09.597Z,95034.00
2023-08-19T02:09:09.616Z,95033.00
2023-08-19T02:10:09.627Z,95034.00
2023-08-19T02:11:09.668Z,95033.00
2023-08-19T02:12:09.689Z,95033.00
2023-08-19T02:13:09.769Z,95033.00
2023-08-19T02:14:09.793Z,95029.00
2023-08-19T02:15:09.844Z,95033.00
2023-08-19T02:16:09.924Z,95033.00
2023-08-19T02:17:09.880Z,95031.00
2023-08-19T02:18:09.984Z,95031.00
2023-08-19T02:19:09.980Z,95033.00
2023-08-19T02:20:09.996Z,95031.00
2023-08-19T02:21:10.012Z,95033.00
2023-08-19T02:22:10.058Z,95033.00
2023-08-19T02:23:10.091Z,95031.00
2023-08-19T02:24:10.100Z,95033.00
2023-08-19T02:25:10.163Z,95033.00
2023-08-19T02:26:10.170Z,95034.00
2023-08-19T02:27:10.183Z,95033.00
2023-08-19T02:28:10.207Z,95031.00
2023-08-19T02:29:10.265Z,95034.00
2023-08-19T02:30:10.257Z,95033.00
2023-08-19T02:31:10.336Z,95029.00
2023-08-19T02:32:10.336Z,95031.00
2023-08-19T02:33:10.375Z,95031.00
2023-08-19T02:34:10.367Z,95031.00
2023-08-19T02:35:10.375Z,95031.00
2023-08-19T02:36:10.408Z,95033.00
2023-08-19T02:37:10.458Z,95031.00
2023-08-19T02:38:10.489Z,95031.00
2023-08-19T02:39:10.533Z,95031.00
2023-08-19T02:40:10.579Z,95027.00
2023-08-19T02:41:10.614Z,95029.00
2023-08-19T02:42:10.677Z,95027.00
2023-08-19T02:43:10.688Z,95027.00
2023-08-19T02:44:10.735Z,95029.00
2023-08-19T02:45:10.779Z,95027.00
2023-08-19T02:46:10.868Z,95027.00
2023-08-19T02:47:10.919Z,95029.00
2023-08-19T02:48:11.018Z,95029.00
2023-08-19T02:49:11.002Z,95029.00
2023-08-19T02:50:11.065Z,95031.00
2023-08-19T02:51:11.093Z,95033.00
2023-08-19T02:52:11.156Z,95034.00
2023-08-19T02:53:11.199Z,95034.00
2023-08-19T02:54:11.255Z,95034.00
2023-08-19T02:55:11.268Z,95034.00
2023-08-19T02:56:11.300Z,95033.00
2023-08-19T02:57:11.341Z,95034.00
2023-08-19T02:58:11.400Z,95038.00
2023-08-19T02:59:11.477Z,95036.00
2023-08-19T03:00:11.482Z,95042.00
2023-08-19T03:01:11.588Z,95040.00
2023-08-19T03:02:11.668Z,95040.00
2023-08-19T03:03:11.780Z,95040.00
2023-08-19T03:04:11.723Z,95036.00
2023-08-19T03:05:11.762Z,95038.00
2023-08-19T03:06:11.816Z,95042.00
2023-08-19T03:07:11.876Z,95044.00
2023-08-19T03:08:11.911Z,95044.00
2023-08-19T03:09:11.975Z,95046.00
2023-08-19T03:10:12.005Z,95046.00
2023-08-19T03:11:12.069Z,95052.00
2023-08-19T03:12:12.079Z,95052.00
2023-08-19T03:13:12.153Z,95054.00
2023-08-19T03:14:12.187Z,95058.00
2023-08-19T03:15:12.237Z,95058.00
2023-08-19T03:16:12.315Z,95058.00
2023-08-19T03:17:12.329Z,95056.00
2023-08-19T03:18:12.394Z,95056.00
2023-08-19T03:19:12.463Z,95060.00
2023-08-19T03:20:12.475Z,95054.00
2023-08-19T03:21:12.502Z,95054.00
2023-08-19T03:22:12.597Z,95052.00
2023-08-19T03:23:12.575Z,95052.00
2023-08-19T03:24:12.647Z,95056.00
2023-08-19T03:25:12.657Z,95056.00
2023-08-19T03:26:12.683Z,95058.00
2023-08-19T03:27:12.724Z,95056.00
2023-08-19T03:28:12.782Z,95058.00
2023-08-19T03:29:12.834Z,95058.00
2023-08-19T03:30:12.876Z,95060.00
2023-08-19T03:31:12.937Z,95058.00
2023-08-19T03:32:12.968Z,95058.00
2023-08-19T03:33:13.067Z,95056.00
2023-08-19T03:34:13.143Z,95056.00
2023-08-19T03:35:13.126Z,95058.00
2023-08-19T03:36:13.179Z,95060.00
2023-08-19T03:37:13.261Z,95058.00
2023-08-19T03:38:13.299Z,95058.00
2023-08-19T03:39:13.368Z,95060.00
2023-08-19T03:40:13.425Z,95058.00
2023-08-19T03:41:13.445Z,95062.00
2023-08-19T03:42:13.465Z,95062.00
2023-08-19T03:43:13.539Z,95066.00
2023-08-19T03:44:13.591Z,95066.00
2023-08-19T03:45:13.640Z,95066.00
2023-08-19T03:46:13.723Z,95060.00
2023-08-19T03:47:13.750Z,95064.00
2023-08-19T03:48:13.845Z,95066.00
2023-08-19T03:49:13.858Z,95066.00
2023-08-19T03:50:13.916Z,95066.00
2023-08-19T03:51:13.950Z,95068.00
2023-08-19T03:52:14.011Z,95066.00
2023-08-19T03:53:14.024Z,95066.00
2023-08-19T03:54:14.067Z,95066.00
2023-08-19T03:55:14.132Z,95066.00
2023-08-19T03:56:14.175Z,95068.00
2023-08-19T03:57:14.232Z,95068.00
2023-08-19T03:58:14.295Z,95068.00
2023-08-19T03:59:14.309Z,95068.00
2023-08-19T04:00:14.359Z,95066.00
2023-08-19T04:01:14.410Z,95066.00
2023-08-19T04:02:14.451Z,95066.00
2023-08-19T04:03:14.509Z,95070.00
2023-08-19T04:04:14.584Z,95068.00
2023-08-19T04:05:14.612Z,95070.00
2023-08-19T04:06:14.661Z,95072.00
2023-08-19T04:07:14.699Z,95070.00
2023-08-19T04:08:14.733Z,95074.00
2023-08-19T04:09:14.799Z,95072.00
2023-08-19T04:10:14.846Z,95072.00
2023-08-19T04:11:14.911Z,95074.00
2023-08-19T04:12:14.969Z,95072.00
2023-08-19T04:13:15.014Z,95074.00
2023-08-19T04:14:15.076Z,95076.00
2023-08-19T04:15:15.161Z,95076.00
2023-08-19T04:16:15.215Z,95078.00
2023-08-19T04:17:15.253Z,95080.00
2023-08-19T04:18:15.357Z,95078.00
2023-08-19T04:19:15.361Z,95080.00
2023-08-19T04:20:15.405Z,95080.00
2023-08-19T04:21:15.473Z,95082.00
2023-08-19T04:22:15.505Z,95080.00
2023-08-19T04:23:15.552Z,95082.00
2023-08-19T04:24:15.612Z,95082.00
2023-08-19T04:25:15.675Z,95084.00
2023-08-19T04:26:15.742Z,95084.00
2023-08-19T04:27:15.793Z,95088.00
2023-08-19T04:28:15.853Z,95089.00
2023-08-19T04:29:15.885Z,95088.00
2023-08-19T04:30:15.975Z,95093.00
2023-08-19T04:31:16.026Z,95093.00
2023-08-19T04:32:16.023Z,95099.00
2023-08-19T04:33:16.137Z,95103.00
2023-08-19T04:34:16.096Z,95105.00
2023-08-19T04:35:16.167Z,95101.00
2023-08-19T04:36:16.198Z,95105.00
2023-08-19T04:37:16.210Z,95105.00
2023-08-19T04:38:16.277Z,95107.00
2023-08-19T04:39:16.315Z,95103.00
2023-08-19T04:40:16.374Z,95109.00
2023-08-19T04:41:16.418Z,95105.00
2023-08-19T04:42:16.462Z,95109.00
2023-08-19T04:43:16.498Z,95105.00
2023-08-19T04:44:16.559Z,95113.00
2023-08-19T04:45:16.560Z,95109.00
2023-08-19T04:46:16.645Z,95115.00
2023-08-19T04:47:16.630Z,95115.00
2023-08-19T04:48:16.678Z,95121.00
2023-08-19T04:49:16.736Z,95115.00
2023-08-19T04:50:16.774Z,95115.00
2023-08-19T04:51:16.835Z,95115.00
2023-08-19T04:52:16.860Z,95115.00
2023-08-19T04:53:16.871Z,95113.00
2023-08-19T04:54:16.993Z,95117.00
2023-08-19T04:55:16.958Z,95119.00
2023-08-19T04:57:17.032Z,95121.00
2023-08-19T04:58:17.095Z,95119.00
2023-08-19T04:59:17.132Z,95121.00
2023-08-19T05:00:17.170Z,95123.00
2023-08-19T05:01:17.260Z,95123.00
2023-08-19T05:02:17.306Z,95123.00
2023-08-19T05:03:17.336Z,95125.00
2023-08-19T05:04:17.448Z,95125.00
2023-08-19T05:05:17.413Z,95127.00
2023-08-19T05:06:17.476Z,95125.00
2023-08-19T05:07:17.479Z,95127.00
2023-08-19T05:08:17.545Z,95129.00
2023-08-19T05:09:17.586Z,95127.00
2023-08-19T05:10:17.665Z,95125.00
2023-08-19T05:11:17.702Z,95123.00
2023-08-19T05:12:17.735Z,95123.00
2023-08-19T05:13:17.801Z,95121.00
2023-08-19T05:14:17.831Z,95127.00
2023-08-19T05:15:17.885Z,95125.00
2023-08-19T05:16:18.003Z,95123.00
2023-08-19T05:17:17.981Z,95125.00
2023-08-19T05:18:18.030Z,95123.00
2023-08-19T05:19:18.042Z,95121.00
2023-08-19T05:20:18.087Z,95123.00
2023-08-19T05:21:18.117Z,95119.00
2023-08-19T05:22:18.181Z,95121.00
2023-08-19T05:23:18.188Z,95117.00
2023-08-19T05:24:18.214Z,95125.00
2023-08-19T05:25:18.300Z,95125.00
2023-08-19T05:26:18.304Z,95127.00
2023-08-19T05:27:18.272Z,95125.00
2023-08-19T05:28:18.343Z,95127.00
2023-08-19T05:29:18.319Z,95127.00
2023-08-19T05:30:18.318Z,95127.00
2023-08-19T05:31:18.420Z,95129.00
2023-08-19T05:32:18.397Z,95131.00
2023-08-19T05:33:18.460Z,95127.00
2023-08-19T05:34:18.510Z,95129.00
2023-08-19T05:35:18.563Z,95129.00
2023-08-19T05:36:18.632Z,95133.00
2023-08-19T05:37:18.658Z,95131.00
2023-08-19T05:38:18.690Z,95131.00
2023-08-19T05:39:18.737Z,95127.00
2023-08-19T05:40:18.768Z,95125.00
2023-08-19T05:41:18.816Z,95127.00
2023-08-19T05:42:18.862Z,95131.00
2023-08-19T05:43:18.877Z,95127.00
2023-08-19T05:44:18.904Z,95127.00
2023-08-19T05:45:18.951Z,95129.00
2023-08-19T05:46:18.966Z,95131.00
2023-08-19T05:47:18.986Z,95133.00
2023-08-19T05:48:19.031Z,95133.00
2023-08-19T05:49:19.058Z,95135.00
2023-08-19T05:50:19.060Z,95133.00
2023-08-19T05:51:19.083Z,95131.00
2023-08-19T05:52:19.094Z,95136.00
2023-08-19T05:53:19.118Z,95135.00
2023-08-19T05:54:19.165Z,95136.00
2023-08-19T05:55:19.205Z,95131.00
2023-08-19T05:56:19.275Z,95136.00
2023-08-19T05:57:19.342Z,95136.00
2023-08-19T05:58:19.373Z,95135.00
2023-08-19T05:59:19.417Z,95133.00
2023-08-19T06:00:19.446Z,95133.00
2023-08-19T06:01:20.147Z,95133.00
2023-08-19T06:02:19.479Z,95135.00
2023-08-19T06:03:19.560Z,95140.00
2023-08-19T06:04:19.475Z,95138.00
2023-08-19T06:05:19.497Z,95138.00
2023-08-19T06:06:19.522Z,95140.00
2023-08-19T06:07:19.558Z,95138.00
2023-08-19T06:08:19.603Z,95140.00
2023-08-19T06:09:19.676Z,95140.00
2023-08-19T06:10:19.737Z,95140.00
2023-08-19T06:11:19.849Z,95136.00
2023-08-19T06:12:19.884Z,95140.00
2023-08-19T06:13:19.905Z,95136.00
2023-08-19T06:14:19.948Z,95142.00
2023-08-19T06:15:19.961Z,95142.00
2023-08-19T06:16:19.957Z,95142.00
2023-08-19T06:17:20.065Z,95142.00
2023-08-19T06:18:20.110Z,95140.00
2023-08-19T06:19:20.112Z,95140.00
2023-08-19T06:20:20.136Z,95142.00
2023-08-19T06:21:20.147Z,95140.00
2023-08-19T06:22:20.175Z,95140.00
2023-08-19T06:23:20.217Z,95142.00
2023-08-19T06:24:20.236Z,95136.00
2023-08-19T06:25:20.335Z,95138.00
2023-08-19T06:26:20.324Z,95140.00
2023-08-19T06:27:20.373Z,95140.00
2023-08-19T06:28:20.386Z,95140.00
2023-08-19T06:29:20.398Z,95138.00
2023-08-19T06:30:20.442Z,95136.00
2023-08-19T06:31:21.753Z,95136.00
2023-08-19T06:32:20.582Z,95138.00
2023-08-19T06:33:20.581Z,95140.00
2023-08-19T06:34:20.633Z,95138.00
2023-08-19T06:35:20.675Z,95140.00
2023-08-19T06:36:20.714Z,95140.00
2023-08-19T06:37:20.753Z,95138.00
2023-08-19T06:38:20.773Z,95133.00
2023-08-19T06:39:20.807Z,95135.00
2023-08-19T06:40:20.868Z,95135.00
2023-08-19T06:41:20.865Z,95135.00
2023-08-19T06:42:20.875Z,95133.00
2023-08-19T06:43:20.901Z,95135.00
2023-08-19T06:44:20.927Z,95133.00
2023-08-19T06:45:20.939Z,95131.00
2023-08-19T06:46:20.972Z,95135.00
2023-08-19T06:47:20.949Z,95136.00
2023-08-19T06:48:20.991Z,95138.00
2023-08-19T06:49:20.996Z,95136.00
2023-08-19T06:50:21.021Z,95138.00
2023-08-19T06:51:21.069Z,95136.00
2023-08-19T06:52:21.093Z,95136.00
2023-08-19T06:53:21.111Z,95140.00
2023-08-19T06:54:21.126Z,95138.00
2023-08-19T06:55:21.145Z,95135.00
2023-08-19T06:56:21.173Z,95136.00
2023-08-19T06:57:21.202Z,95140.00
2023-08-19T06:58:21.255Z,95138.00
2023-08-19T06:59:21.285Z,95135.00
2023-08-19T07:00:21.287Z,95138.00
2023-08-19T07:01:21.367Z,95138.00
2023-08-19T07:02:21.392Z,95136.00
2023-08-19T07:03:21.411Z,95138.00
2023-08-19T07:04:21.369Z,95136.00
2023-08-19T07:05:21.379Z,95138.00
2023-08-19T07:06:21.392Z,95135.00
2023-08-19T07:07:21.416Z,95136.00
2023-08-19T07:08:21.409Z,95135.00
2023-08-19T07:09:21.453Z,95133.00
2023-08-19T07:10:21.468Z,95135.00
2023-08-19T07:11:21.501Z,95136.00
2023-08-19T07:12:21.500Z,95135.00
2023-08-19T07:13:21.553Z,95136.00
2023-08-19T07:14:21.574Z,95133.00
2023-08-19T07:15:21.649Z,95135.00
2023-08-19T07:16:21.725Z,95135.00
2023-08-19T07:17:21.758Z,95135.00
2023-08-19T07:18:21.914Z,95138.00
2023-08-19T07:19:21.849Z,95136.00
2023-08-19T07:20:21.897Z,95135.00
2023-08-19T07:21:21.894Z,95133.00
2023-08-19T07:22:21.930Z,95136.00
2023-08-19T07:23:21.974Z,95133.00
2023-08-19T07:24:21.999Z,95133.00
2023-08-19T07:25:22.052Z,95131.00
2023-08-19T07:26:22.058Z,95129.00
2023-08-19T07:27:22.077Z,95131.00
2023-08-19T07:28:22.106Z,95131.00
2023-08-19T07:29:22.110Z,95129.00
2023-08-19T07:30:22.138Z,95129.00
2023-08-19T07:31:22.123Z,95131.00
2023-08-19T07:32:22.149Z,95131.00
2023-08-19T07:33:22.157Z,95129.00
2023-08-19T07:34:22.130Z,95127.00
2023-08-19T07:35:22.162Z,95129.00
2023-08-19T07:36:22.191Z,95129.00
2023-08-19T07:37:22.217Z,95129.00
2023-08-19T07:38:22.268Z,95127.00
2023-08-19T07:39:22.306Z,95129.00
2023-08-19T07:40:22.361Z,95129.00
2023-08-19T07:41:22.413Z,95129.00
2023-08-19T07:42:22.458Z,95133.00
2023-08-19T07:43:22.515Z,95133.00
2023-08-19T07:44:22.546Z,95133.00
2023-08-19T07:45:22.606Z,95131.00
2023-08-19T07:46:22.646Z,95129.00
2023-08-19T07:47:22.660Z,95131.00
2023-08-19T07:48:22.758Z,95131.00
2023-08-19T07:49:22.726Z,95131.00
2023-08-19T07:50:22.748Z,95131.00
2023-08-19T07:51:22.778Z,95131.00
2023-08-19T07:52:22.794Z,95127.00
2023-08-19T07:53:22.826Z,95133.00
2023-08-19T07:54:22.867Z,95131.00
2023-08-19T07:55:22.898Z,95129.00
2023-08-19T07:56:22.909Z,95133.00
2023-08-19T07:57:22.929Z,95133.00
2023-08-19T07:58:22.974Z,95133.00
2023-08-19T07:59:23.009Z,95133.00
2023-08-19T08:00:23.021Z,95133.00
2023-08-19T08:01:23.044Z,95131.00
2023-08-19T08:02:23.806Z,95135.00
2023-08-19T08:03:23.137Z,95133.00
2023-08-19T08:04:23.102Z,95127.00
2023-08-19T08:05:23.283Z,95131.00
2023-08-19T08:06:23.095Z,95129.00
2023-08-19T08:07:23.106Z,95127.00
2023-08-19T08:08:23.148Z,95131.00
2023-08-19T08:09:23.198Z,95125.00
2023-08-19T08:10:23.256Z,95131.00
2023-08-19T08:11:23.314Z,95127.00
2023-08-19T08:12:23.378Z,95131.00
2023-08-19T08:13:23.412Z,95129.00
2023-08-19T08:14:23.491Z,95125.00
2023-08-19T08:15:23.521Z,95123.00
2023-08-19T08:16:23.625Z,95123.00
2023-08-19T08:17:23.616Z,95121.00
2023-08-19T08:18:23.694Z,95115.00
2023-08-19T08:19:23.718Z,95115.00
2023-08-19T08:20:23.748Z,95111.00
2023-08-19T08:21:23.794Z,95113.00
2023-08-19T08:22:23.815Z,95115.00
2023-08-19T08:23:23.853Z,95115.00
2023-08-19T08:24:23.888Z,95113.00
2023-08-19T08:25:23.927Z,95113.00
2023-08-19T08:26:23.957Z,95117.00
2023-08-19T08:27:23.994Z,95111.00
2023-08-19T08:28:24.019Z,95113.00
2023-08-19T08:29:24.044Z,95111.00
2023-08-19T08:30:24.089Z,95111.00
2023-08-19T08:31:24.130Z,95109.00
2023-08-19T08:32:24.245Z,95103.00
2023-08-19T08:33:24.159Z,95105.00
2023-08-19T08:34:24.196Z,95103.00
2023-08-19T08:35:24.193Z,95097.00
2023-08-19T08:36:24.235Z,95097.00
2023-08-19T08:37:24.233Z,95095.00
2023-08-19T08:38:24.257Z,95093.00
2023-08-19T08:39:24.267Z,95091.00
2023-08-19T08:40:24.795Z,95091.00
2023-08-19T08:41:24.311Z,95086.00
2023-08-19T08:42:24.311Z,95084.00
2023-08-19T08:43:24.318Z,95082.00
2023-08-19T08:44:24.348Z,95078.00
2023-08-19T08:45:24.404Z,95076.00
2023-08-19T08:46:24.384Z,95080.00
2023-08-19T08:47:24.473Z,95080.00
2023-08-19T08:48:24.409Z,95076.00
2023-08-19T08:49:24.483Z,95078.00
2023-08-19T08:50:24.420Z,95072.00
2023-08-19T08:51:24.458Z,95072.00
2023-08-19T08:52:24.466Z,95070.00
2023-08-19T08:53:24.465Z,95074.00
2023-08-19T08:54:24.516Z,95072.00
2023-08-19T08:55:24.486Z,95074.00
2023-08-19T08:56:24.496Z,95072.00
2023-08-19T08:57:24.537Z,95072.00
2023-08-19T08:58:24.554Z,95074.00
2023-08-19T08:59:24.560Z,95072.00
2023-08-19T09:00:24.569Z,95070.00
2023-08-19T09:01:24.702Z,95070.00
2023-08-19T09:02:24.620Z,95070.00
2023-08-19T09:03:24.677Z,95068.00
2023-08-19T09:04:24.782Z,95070.00
2023-08-19T09:05:24.820Z,95070.00
2023-08-19T09:06:27.374Z,95072.00
2023-08-19T09:07:24.808Z,95066.00
2023-08-19T09:08:24.802Z,95066.00
2023-08-19T09:09:24.787Z,95072.00
2023-08-19T09:10:24.795Z,95064.00
2023-08-19T09:11:24.788Z,95064.00
2023-08-19T09:12:24.772Z,95062.00
2023-08-19T09:13:24.772Z,95060.00
2023-08-19T09:14:24.764Z,95060.00
2023-08-19T09:15:24.773Z,95060.00
2023-08-19T09:16:24.761Z,95064.00
2023-08-19T09:17:24.746Z,95058.00
2023-08-19T09:18:24.744Z,95054.00
2023-08-19T09:19:24.743Z,95060.00
2023-08-19T09:20:24.731Z,95058.00
2023-08-19T09:21:24.728Z,95056.00
2023-08-19T09:22:24.723Z,95056.00
2023-08-19T09:23:24.711Z,95054.00
2023-08-19T09:24:24.709Z,95050.00
2023-08-19T09:25:24.712Z,95054.00
2023-08-19T09:26:24.696Z,95052.00
2023-08-19T09:27:24.688Z,95050.00
2023-08-19T09:28:24.677Z,95050.00
2023-08-19T09:29:24.676Z,95050.00
2023-08-19T09:30:24.663Z,95048.00
2023-08-19T09:31:24.694Z,95050.00
2023-08-19T09:32:24.648Z,95046.00
2023-08-19T09:33:24.641Z,95046.00
2023-08-19T09:34:24.633Z,95044.00
2023-08-19T09:35:24.629Z,95042.00
2023-08-19T09:36:24.636Z,95044.00
2023-08-19T09:37:24.621Z,95038.00
2023-08-19T09:38:24.622Z,95040.00
2023-08-19T09:39:24.606Z,95036.00
2023-08-19T09:40:24.600Z,95036.00
2023-08-19T09:41:24.625Z,95036.00
2023-08-19T09:42:24.586Z,95031.00
2023-08-19T09:43:24.584Z,95033.00
2023-08-19T09:44:24.589Z,95033.00
2023-08-19T09:45:24.679Z,95029.00
2023-08-19T09:46:24.586Z,95029.00
2023-08-19T09:47:24.546Z,95031.00
2023-08-19T09:48:24.547Z,95027.00
2023-08-19T09:49:24.548Z,95027.00
2023-08-19T09:50:24.554Z,95027.00
2023-08-19T09:51:24.598Z,95027.00
2023-08-19T09:52:24.516Z,95027.00
2023-08-19T09:53:24.552Z,95027.00
2023-08-19T09:54:24.507Z,95027.00
2023-08-19T09:55:24.495Z,95023.00
2023-08-19T09:56:24.496Z,95023.00
2023-08-19T09:57:24.493Z,95023.00
2023-08-19T09:58:24.477Z,95025.00
2023-08-19T09:59:24.472Z,95025.00
2023-08-19T10:00:24.498Z,95021.00
2023-08-19T10:01:24.540Z,95023.00
2023-08-19T10:02:24.447Z,95017.00
2023-08-19T10:03:24.486Z,95019.00
2023-08-19T10:04:24.476Z,95017.00
2023-08-19T10:05:24.470Z,95015.00
2023-08-19T10:06:24.447Z,95017.00
2023-08-19T10:07:24.428Z,95019.00
2023-08-19T10:08:24.452Z,95015.00
2023-08-19T10:09:24.411Z,95019.00
2023-08-19T10:10:24.409Z,95017.00
2023-08-19T10:11:24.403Z,95017.00
2023-08-19T10:12:24.390Z,95017.00
2023-08-19T10:13:24.384Z,95015.00
2023-08-19T10:14:24.404Z,95015.00
2023-08-19T10:15:24.382Z,95011.00
2023-08-19T10:16:24.411Z,95013.00
2023-08-19T10:17:24.441Z,95007.00
2023-08-19T10:18:24.361Z,95009.00
2023-08-19T10:19:24.416Z,95007.00
2023-08-19T10:20:24.492Z,95009.00
2023-08-19T10:21:24.543Z,95007.00
2023-08-19T10:22:24.589Z,95003.00
2023-08-19T10:23:24.660Z,95005.00
2023-08-19T10:24:24.644Z,95005.00
2023-08-19T10:25:24.724Z,95007.00
2023-08-19T10:26:24.744Z,95005.00
2023-08-19T10:27:24.801Z,95001.00
2023-08-19T10:28:24.832Z,95005.00
2023-08-19T10:29:24.859Z,95003.00
2023-08-19T10:30:24.901Z,95003.00
2023-08-19T10:31:24.934Z,94999.00
2023-08-19T10:32:24.959Z,94999.00
2023-08-19T10:33:25.028Z,94999.00
2023-08-19T10:34:25.058Z,94997.00
2023-08-19T10:35:25.101Z,94995.00
2023-08-19T10:36:25.134Z,94997.00
2023-08-19T10:37:25.158Z,94993.00
2023-08-19T10:38:25.176Z,94993.00
2023-08-19T10:39:25.199Z,94993.00
2023-08-19T10:40:25.217Z,94989.00
2023-08-19T10:41:25.220Z,94989.00
2023-08-19T10:42:25.224Z,94987.00
2023-08-19T10:43:25.218Z,94989.00
2023-08-19T10:44:25.230Z,94986.00
2023-08-19T10:45:25.229Z,94987.00
2023-08-19T10:46:25.293Z,94987.00
2023-08-19T10:47:25.354Z,94986.00
2023-08-19T10:48:25.301Z,94984.00
2023-08-19T10:49:25.340Z,94982.00
2023-08-19T10:50:25.371Z,94986.00
2023-08-19T10:51:25.447Z,94984.00
2023-08-19T10:52:25.411Z,94976.00
2023-08-19T10:53:25.406Z,94978.00
2023-08-19T10:54:25.427Z,94978.00
2023-08-19T10:55:25.454Z,94976.00
2023-08-19T10:56:25.510Z,94972.00
2023-08-19T10:57:25.623Z,94968.00
2023-08-19T10:58:25.562Z,94970.00
2023-08-19T10:59:25.594Z,94974.00
2023-08-19T11:00:25.602Z,94974.00
2023-08-19T11:01:25.669Z,94970.00
2023-08-19T11:02:25.664Z,94972.00
2023-08-19T11:03:25.670Z,94970.00
2023-08-19T11:04:25.740Z,94966.00
2023-08-19T11:05:25.736Z,94972.00
2023-08-19T11:06:25.777Z,94972.00
2023-08-19T11:07:25.825Z,94968.00
2023-08-19T11:08:25.885Z,94974.00
2023-08-19T11:09:25.905Z,94976.00
2023-08-19T11:10:25.918Z,94972.00
2023-08-19T11:11:25.940Z,94974.00
2023-08-19T11:12:26.400Z,94972.00
2023-08-19T11:13:26.038Z,94966.00
2023-08-19T11:14:26.094Z,94964.00
2023-08-19T11:15:26.134Z,94964.00
2023-08-19T11:16:26.209Z,94964.00
2023-08-19T11:17:26.247Z,94968.00
2023-08-19T11:18:26.321Z,94970.00
2023-08-19T11:19:26.310Z,94970.00
2023-08-19T11:20:26.356Z,94970.00
2023-08-19T11:21:26.346Z,94968.00
2023-08-19T11:22:26.409Z,94964.00
2023-08-19T11:23:26.387Z,94964.00
2023-08-19T11:24:26.419Z,94962.00
2023-08-19T11:25:26.428Z,94964.00
2023-08-19T11:26:26.484Z,94966.00
2023-08-19T11:27:26.588Z,94966.00
2023-08-19T11:28:26.639Z,94960.00
2023-08-19T11:29:26.642Z,94966.00
2023-08-19T11:30:26.632Z,94966.00
2023-08-19T11:31:26.722Z,94964.00
2023-08-19T11:32:26.685Z,94966.00
2023-08-19T11:33:26.721Z,94962.00
2023-08-19T11:34:26.711Z,94964.00
2023-08-19T11:35:26.777Z,94966.00
2023-08-19T11:36:26.826Z,94970.00
2023-08-19T11:37:26.879Z,94970.00
2023-08-19T11:38:26.935Z,94968.00
2023-08-19T11:39:26.990Z,94964.00
2023-08-19T11:40:29.906Z,94962.00
2023-08-19T11:41:27.030Z,94964.00
2023-08-19T11:42:27.028Z,94958.00
2023-08-19T11:43:27.028Z,94960.00
2023-08-19T11:44:27.023Z,94960.00
2023-08-19T11:45:27.003Z,94960.00